Indianapolis International, IN

6:05 AM EDT on August 19, 2017 (GMT -0400)
Indianapolis International | | Change Station

Elev 794 ft 39.72 °N, 86.29 °W | Updated 11 minutes ago

Mostly Cloudy
Mostly Cloudy
70 °F
Feels Like 70 °F
N
5
Wind Variable Wind from NW

Today
High -- | Low -- °F
--% Chance of Precip.
Yesterday
High -- | Low -- °F
Precip. -- in
Pressure 29.90 in
Visibility 10.0 miles
Clouds Mostly Cloudy 11000 ft
Dew Point 65 °F
Humidity 84%
Rainfall 0.01 in
Snow Depth Not available.
7:01 AM 8:35 PM
Waning Crescent, 7% visible
METAR KIND 190954Z 31004KT 10SM BKN110 21/18 A2992 RMK AO2 RAB17E44 SLP123 P0001 T02110183
Pressure 29.90 in
Visibility 10.0 miles
Clouds Mostly Cloudy 11000 ft
Dew Point 65 °F
Humidity 84%
Rainfall 0.01 in
Snow Depth Not available.
7:01 AM 8:35 PM
Waning Crescent, 7% visible
METAR KIND 190954Z 31004KT 10SM BKN110 21/18 A2992 RMK AO2 RAB17E44 SLP123 P0001 T02110183

Get Severe Weather Alerts

Thanks for signing up!

Be on the lookout for a verification email in your inbox.

You'll start receiving the daily forecast at 6 AM.

×

10-Day Weather Forecast

Almanac

Astronomy

Aug. 19, 2017 Rise Set
Actual Time
Civil Twilight
Nautical Twilight
Astronomical Twilight
Moon
Length of Visible Light
Length of Day
Tomorrow will be .
, % of the Moon is Illuminated

Today's Extremes

State Highs State Lows

Community

WunderPhotos

Category 6

Welcome to Category 6. This is the collective home for Weather Underground's featured writeups by Dr. Jeff Masters (right), Bob Henson (left), Chris Burt, and other regular contributors.

Nearby

Air Quality

  Air Quality AQ Index Pollutant
Not available.

Snow Depth

Station Depth Elevation

Earthquake Activity

City Distance Mag. Time & Date
Minimum magnitude displayed is 2.5.

Coastal Water Temperatures

Place Temperature

Stations

Nearby Weather Stations

Station Location Temp. Windchill Dew Point Humidity Wind Precip. Elev Updated Type
                   

Watches & Warnings

There are currently no watches in effect.